sensor_id;sensor_type;location;lat;lon;timestamp;pressure;altitude;pressure_sealevel;temperature
72278;BMP280;61204;49.980;8.358;2023-12-14T00:01:21;99433.53;;;4.00
72278;BMP280;61204;49.980;8.358;2023-12-14T00:03:47;99435.22;;;3.95
72278;BMP280;61204;49.980;8.358;2023-12-14T00:06:13;99447.81;;;4.00
72278;BMP280;61204;49.980;8.358;2023-12-14T00:08:39;99448.47;;;4.09
72278;BMP280;61204;49.980;8.358;2023-12-14T00:11:06;99449.16;;;4.17
72278;BMP280;61204;49.980;8.358;2023-12-14T00:13:34;99455.44;;;4.19
72278;BMP280;61204;49.980;8.358;2023-12-14T00:16:00;99467.44;;;4.34
72278;BMP280;61204;49.980;8.358;2023-12-14T00:18:30;99474.22;;;4.25
72278;BMP280;61204;49.980;8.358;2023-12-14T00:20:56;99474.22;;;4.42
72278;BMP280;61204;49.980;8.358;2023-12-14T00:23:23;99479.19;;;4.54
72278;BMP280;61204;49.980;8.358;2023-12-14T00:25:49;99478.78;;;4.57
72278;BMP280;61204;49.980;8.358;2023-12-14T00:28:17;99489.50;;;4.55
72278;BMP280;61204;49.980;8.358;2023-12-14T00:30:43;99487.00;;;4.49
72278;BMP280;61204;49.980;8.358;2023-12-14T00:33:08;99492.66;;;4.44
72278;BMP280;61204;49.980;8.358;2023-12-14T00:35:36;99496.91;;;4.37
72278;BMP280;61204;49.980;8.358;2023-12-14T00:38:04;99501.50;;;4.27
72278;BMP280;61204;49.980;8.358;2023-12-14T00:40:29;99498.38;;;4.13
72278;BMP280;61204;49.980;8.358;2023-12-14T00:42:57;99501.63;;;4.12
72278;BMP280;61204;49.980;8.358;2023-12-14T00:45:23;99501.41;;;4.17
72278;BMP280;61204;49.980;8.358;2023-12-14T00:47:48;99502.97;;;4.03
72278;BMP280;61204;49.980;8.358;2023-12-14T00:50:14;99508.50;;;3.88
72278;BMP280;61204;49.980;8.358;2023-12-14T00:52:39;99509.00;;;3.94
72278;BMP280;61204;49.980;8.358;2023-12-14T00:55:05;99517.72;;;3.85
72278;BMP280;61204;49.980;8.358;2023-12-14T00:57:34;99529.66;;;3.82
72278;BMP280;61204;49.980;8.358;2023-12-14T00:59:59;99532.59;;;3.76
72278;BMP280;61204;49.980;8.358;2023-12-14T01:02:25;99535.22;;;3.59
72278;BMP280;61204;49.980;8.358;2023-12-14T01:04:50;99543.06;;;3.47
72278;BMP280;61204;49.980;8.358;2023-12-14T01:07:16;99541.13;;;3.32
72278;BMP280;61204;49.980;8.358;2023-12-14T01:09:41;99551.31;;;3.16
72278;BMP280;61204;49.980;8.358;2023-12-14T01:12:07;99567.69;;;3.26
72278;BMP280;61204;49.980;8.358;2023-12-14T01:14:32;99561.19;;;3.29
72278;BMP280;61204;49.980;8.358;2023-12-14T01:17:00;99568.19;;;3.40
72278;BMP280;61204;49.980;8.358;2023-12-14T01:19:26;99577.91;;;3.51
72278;BMP280;61204;49.980;8.358;2023-12-14T01:21:52;99584.44;;;3.47
72278;BMP280;61204;49.980;8.358;2023-12-14T01:24:20;99580.50;;;3.41
72278;BMP280;61204;49.980;8.358;2023-12-14T01:26:45;99600.72;;;3.40
72278;BMP280;61204;49.980;8.358;2023-12-14T01:29:11;99598.34;;;3.44
72278;BMP280;61204;49.980;8.358;2023-12-14T01:31:37;99604.06;;;3.56
72278;BMP280;61204;49.980;8.358;2023-12-14T01:34:02;99601.16;;;3.61
72278;BMP280;61204;49.980;8.358;2023-12-14T01:36:28;99608.66;;;3.45
72278;BMP280;61204;49.980;8.358;2023-12-14T01:38:54;99615.91;;;3.28
72278;BMP280;61204;49.980;8.358;2023-12-14T01:41:19;99622.09;;;3.13
72278;BMP280;61204;49.980;8.358;2023-12-14T01:43:45;99623.53;;;3.06
72278;BMP280;61204;49.980;8.358;2023-12-14T01:46:12;99627.16;;;3.09
72278;BMP280;61204;49.980;8.358;2023-12-14T01:48:40;99634.19;;;3.04
72278;BMP280;61204;49.980;8.358;2023-12-14T01:51:06;99639.78;;;3.21
72278;BMP280;61204;49.980;8.358;2023-12-14T01:53:31;99643.03;;;3.20
72278;BMP280;61204;49.980;8.358;2023-12-14T01:55:57;99646.44;;;3.28
72278;BMP280;61204;49.980;8.358;2023-12-14T01:58:22;99652.56;;;3.36
72278;BMP280;61204;49.980;8.358;2023-12-14T02:01:16;99649.84;;;3.36
72278;BMP280;61204;49.980;8.358;2023-12-14T02:03:54;99652.19;;;3.32
72278;BMP280;61204;49.980;8.358;2023-12-14T02:06:20;99651.31;;;3.37
72278;BMP280;61204;49.980;8.358;2023-12-14T02:08:46;99657.19;;;3.51
72278;BMP280;61204;49.980;8.358;2023-12-14T02:11:12;99649.06;;;3.59
72278;BMP280;61204;49.980;8.358;2023-12-14T02:13:37;99657.91;;;3.59
72278;BMP280;61204;49.980;8.358;2023-12-14T02:16:06;99661.88;;;3.66
72278;BMP280;61204;49.980;8.358;2023-12-14T02:18:31;99659.88;;;3.66
72278;BMP280;61204;49.980;8.358;2023-12-14T02:20:57;99665.28;;;3.74
72278;BMP280;61204;49.980;8.358;2023-12-14T02:23:22;99666.22;;;3.69
72278;BMP280;61204;49.980;8.358;2023-12-14T02:25:48;99673.41;;;3.74
72278;BMP280;61204;49.980;8.358;2023-12-14T02:28:14;99678.06;;;3.81
72278;BMP280;61204;49.980;8.358;2023-12-14T02:30:39;99678.78;;;3.89
72278;BMP280;61204;49.980;8.358;2023-12-14T02:33:05;99680.31;;;4.08
72278;BMP280;61204;49.980;8.358;2023-12-14T02:35:32;99686.03;;;4.19
72278;BMP280;61204;49.980;8.358;2023-12-14T02:37:58;99684.53;;;4.34
72278;BMP280;61204;49.980;8.358;2023-12-14T02:40:23;99688.94;;;4.46
72278;BMP280;61204;49.980;8.358;2023-12-14T02:42:49;99687.44;;;4.36
72278;BMP280;61204;49.980;8.358;2023-12-14T02:45:14;99688.38;;;4.23
72278;BMP280;61204;49.980;8.358;2023-12-14T02:47:40;99694.16;;;4.19
72278;BMP280;61204;49.980;8.358;2023-12-14T02:50:06;99690.97;;;4.13
72278;BMP280;61204;49.980;8.358;2023-12-14T02:52:34;99699.59;;;4.19
72278;BMP280;61204;49.980;8.358;2023-12-14T02:54:59;99703.19;;;4.30
72278;BMP280;61204;49.980;8.358;2023-12-14T02:57:26;99706.09;;;4.57
72278;BMP280;61204;49.980;8.358;2023-12-14T02:59:51;99712.41;;;4.59
72278;BMP280;61204;49.980;8.358;2023-12-14T03:02:17;99711.25;;;4.70
72278;BMP280;61204;49.980;8.358;2023-12-14T03:04:42;99706.31;;;4.76
72278;BMP280;61204;49.980;8.358;2023-12-14T03:07:10;99712.25;;;4.82
72278;BMP280;61204;49.980;8.358;2023-12-14T03:09:39;99716.94;;;4.82
72278;BMP280;61204;49.980;8.358;2023-12-14T03:12:10;99724.88;;;4.87
72278;BMP280;61204;49.980;8.358;2023-12-14T03:14:35;99721.25;;;4.92
72278;BMP280;61204;49.980;8.358;2023-12-14T03:17:03;99720.72;;;4.86
72278;BMP280;61204;49.980;8.358;2023-12-14T03:19:31;99729.59;;;4.87
72278;BMP280;61204;49.980;8.358;2023-12-14T03:21:57;99732.25;;;4.94
72278;BMP280;61204;49.980;8.358;2023-12-14T03:24:25;99740.78;;;4.91
72278;BMP280;61204;49.980;8.358;2023-12-14T03:26:50;99743.88;;;4.87
72278;BMP280;61204;49.980;8.358;2023-12-14T03:29:16;99740.25;;;4.92
72278;BMP280;61204;49.980;8.358;2023-12-14T03:31:43;99749.38;;;5.05
72278;BMP280;61204;49.980;8.358;2023-12-14T03:34:12;99755.91;;;5.01
72278;BMP280;61204;49.980;8.358;2023-12-14T03:36:40;99749.88;;;4.86
72278;BMP280;61204;49.980;8.358;2023-12-14T03:39:06;99754.38;;;4.91
72278;BMP280;61204;49.980;8.358;2023-12-14T03:41:31;99757.97;;;4.93
72278;BMP280;61204;49.980;8.358;2023-12-14T03:43:57;99753.84;;;4.92
72278;BMP280;61204;49.980;8.358;2023-12-14T03:46:23;99766.50;;;4.90
72278;BMP280;61204;49.980;8.358;2023-12-14T03:48:48;99764.34;;;4.88
72278;BMP280;61204;49.980;8.358;2023-12-14T03:51:19;99771.03;;;4.87
72278;BMP280;61204;49.980;8.358;2023-12-14T03:53:45;99768.31;;;4.87
72278;BMP280;61204;49.980;8.358;2023-12-14T03:56:11;99780.19;;;4.74
72278;BMP280;61204;49.980;8.358;2023-12-14T03:58:37;99770.50;;;4.89
72278;BMP280;61204;49.980;8.358;2023-12-14T04:01:02;99783.34;;;4.88
72278;BMP280;61204;49.980;8.358;2023-12-14T04:03:28;99786.09;;;4.81
72278;BMP280;61204;49.980;8.358;2023-12-14T04:05:54;99789.22;;;4.77
72278;BMP280;61204;49.980;8.358;2023-12-14T04:08:19;99796.09;;;4.78
72278;BMP280;61204;49.980;8.358;2023-12-14T04:10:45;99799.75;;;4.73
72278;BMP280;61204;49.980;8.358;2023-12-14T04:13:10;99796.50;;;4.74
72278;BMP280;61204;49.980;8.358;2023-12-14T04:15:36;99802.47;;;4.73
72278;BMP280;61204;49.980;8.358;2023-12-14T04:18:07;99804.63;;;4.74
72278;BMP280;61204;49.980;8.358;2023-12-14T04:20:33;99810.22;;;4.76
72278;BMP280;61204;49.980;8.358;2023-12-14T04:22:59;99805.66;;;4.79
72278;BMP280;61204;49.980;8.358;2023-12-14T04:25:24;99811.91;;;4.64
72278;BMP280;61204;49.980;8.358;2023-12-14T04:27:52;99818.63;;;4.63
72278;BMP280;61204;49.980;8.358;2023-12-14T04:30:18;99826.47;;;4.52
72278;BMP280;61204;49.980;8.358;2023-12-14T04:32:43;99830.25;;;4.56
72278;BMP280;61204;49.980;8.358;2023-12-14T04:35:12;99841.66;;;4.55
72278;BMP280;61204;49.980;8.358;2023-12-14T04:37:38;99839.69;;;4.55
72278;BMP280;61204;49.980;8.358;2023-12-14T04:40:04;99849.75;;;4.70
72278;BMP280;61204;49.980;8.358;2023-12-14T04:42:30;99849.78;;;4.95
72278;BMP280;61204;49.980;8.358;2023-12-14T04:44:56;99852.78;;;5.07
72278;BMP280;61204;49.980;8.358;2023-12-14T04:47:21;99856.88;;;4.90
72278;BMP280;61204;49.980;8.358;2023-12-14T04:49:47;99865.97;;;4.78
72278;BMP280;61204;49.980;8.358;2023-12-14T04:52:12;99866.31;;;4.82
72278;BMP280;61204;49.980;8.358;2023-12-14T04:54:38;99866.13;;;4.80
72278;BMP280;61204;49.980;8.358;2023-12-14T04:57:08;99868.38;;;4.73
72278;BMP280;61204;49.980;8.358;2023-12-14T04:59:33;99871.25;;;4.75
72278;BMP280;61204;49.980;8.358;2023-12-14T05:01:59;99876.53;;;4.73
72278;BMP280;61204;49.980;8.358;2023-12-14T05:04:27;99872.91;;;4.63
72278;BMP280;61204;49.980;8.358;2023-12-14T05:06:52;99880.16;;;4.61
72278;BMP280;61204;49.980;8.358;2023-12-14T05:09:18;99878.00;;;4.59
72278;BMP280;61204;49.980;8.358;2023-12-14T05:11:43;99884.88;;;4.60
72278;BMP280;61204;49.980;8.358;2023-12-14T05:14:09;99895.72;;;4.60
72278;BMP280;61204;49.980;8.358;2023-12-14T05:16:37;99906.78;;;4.62
72278;BMP280;61204;49.980;8.358;2023-12-14T05:19:02;99899.00;;;4.59
72278;BMP280;61204;49.980;8.358;2023-12-14T05:21:28;99916.00;;;4.59
72278;BMP280;61204;49.980;8.358;2023-12-14T05:23:53;99913.47;;;4.61
72278;BMP280;61204;49.980;8.358;2023-12-14T05:26:19;99914.41;;;4.56
72278;BMP280;61204;49.980;8.358;2023-12-14T05:28:44;99908.06;;;4.54
72278;BMP280;61204;49.980;8.358;2023-12-14T05:31:10;99918.94;;;4.54
72278;BMP280;61204;49.980;8.358;2023-12-14T05:33:37;99923.13;;;4.55
72278;BMP280;61204;49.980;8.358;2023-12-14T05:36:04;99933.78;;;4.53
72278;BMP280;61204;49.980;8.358;2023-12-14T05:38:37;99932.16;;;4.49
72278;BMP280;61204;49.980;8.358;2023-12-14T05:41:04;99941.22;;;4.52
72278;BMP280;61204;49.980;8.358;2023-12-14T05:43:29;99941.22;;;4.52
72278;BMP280;61204;49.980;8.358;2023-12-14T05:45:55;99944.28;;;4.56
72278;BMP280;61204;49.980;8.358;2023-12-14T05:48:21;99953.13;;;4.57
72278;BMP280;61204;49.980;8.358;2023-12-14T05:50:46;99963.78;;;4.70
72278;BMP280;61204;49.980;8.358;2023-12-14T05:53:12;99967.56;;;4.74
72278;BMP280;61204;49.980;8.358;2023-12-14T05:55:38;99978.63;;;4.69
72278;BMP280;61204;49.980;8.358;2023-12-14T05:58:06;99985.88;;;4.59
72278;BMP280;61204;49.980;8.358;2023-12-14T06:00:32;99982.44;;;4.50
72278;BMP280;61204;49.980;8.358;2023-12-14T06:03:00;99985.72;;;4.49
72278;BMP280;61204;49.980;8.358;2023-12-14T06:05:26;99986.81;;;4.54
72278;BMP280;61204;49.980;8.358;2023-12-14T06:07:52;99983.56;;;4.55
72278;BMP280;61204;49.980;8.358;2023-12-14T06:10:18;99985.16;;;4.50
72278;BMP280;61204;49.980;8.358;2023-12-14T06:12:47;99999.63;;;4.68
72278;BMP280;61204;49.980;8.358;2023-12-14T06:15:13;99996.31;;;4.85
72278;BMP280;61204;49.980;8.358;2023-12-14T06:17:41;100009.19;;;4.77
72278;BMP280;61204;49.980;8.358;2023-12-14T06:20:08;100016.09;;;4.63
72278;BMP280;61204;49.980;8.358;2023-12-14T06:22:38;100015.06;;;4.58
72278;BMP280;61204;49.980;8.358;2023-12-14T06:25:04;100020.81;;;4.62
72278;BMP280;61204;49.980;8.358;2023-12-14T06:27:30;100033.84;;;4.64
72278;BMP280;61204;49.980;8.358;2023-12-14T06:29:56;100049.06;;;4.59
72278;BMP280;61204;49.980;8.358;2023-12-14T06:32:22;100041.66;;;4.52
72278;BMP280;61204;49.980;8.358;2023-12-14T06:34:50;100047.44;;;4.56
72278;BMP280;61204;49.980;8.358;2023-12-14T06:37:16;100051.41;;;4.70
72278;BMP280;61204;49.980;8.358;2023-12-14T06:39:41;100049.91;;;4.92
72278;BMP280;61204;49.980;8.358;2023-12-14T06:42:07;100046.97;;;4.98
72278;BMP280;61204;49.980;8.358;2023-12-14T06:44:33;100060.78;;;4.92
72278;BMP280;61204;49.980;8.358;2023-12-14T06:46:59;100068.03;;;4.82
72278;BMP280;61204;49.980;8.358;2023-12-14T06:49:25;100073.47;;;4.82
72278;BMP280;61204;49.980;8.358;2023-12-14T06:51:51;100074.53;;;4.79
72278;BMP280;61204;49.980;8.358;2023-12-14T06:54:16;100072.53;;;4.80
72278;BMP280;61204;49.980;8.358;2023-12-14T06:56:42;100074.72;;;4.81
72278;BMP280;61204;49.980;8.358;2023-12-14T06:59:08;100094.47;;;4.89
72278;BMP280;61204;49.980;8.358;2023-12-14T07:01:33;100089.41;;;4.93
72278;BMP280;61204;49.980;8.358;2023-12-14T07:04:00;100078.53;;;4.93
72278;BMP280;61204;49.980;8.358;2023-12-14T07:06:25;100102.25;;;4.93
72278;BMP280;61204;49.980;8.358;2023-12-14T07:08:51;100098.81;;;4.92
72278;BMP280;61204;49.980;8.358;2023-12-14T07:11:16;100099.19;;;4.89
72278;BMP280;61204;49.980;8.358;2023-12-14T07:13:42;100107.13;;;4.87
72278;BMP280;61204;49.980;8.358;2023-12-14T07:16:09;100114.94;;;4.83
72278;BMP280;61204;49.980;8.358;2023-12-14T07:18:37;100119.81;;;4.84
72278;BMP280;61204;49.980;8.358;2023-12-14T07:21:06;100123.41;;;5.10
72278;BMP280;61204;49.980;8.358;2023-12-14T07:23:33;100122.84;;;4.96
72278;BMP280;61204;49.980;8.358;2023-12-14T07:26:02;100119.59;;;4.97
72278;BMP280;61204;49.980;8.358;2023-12-14T07:28:28;100133.91;;;5.06
72278;BMP280;61204;49.980;8.358;2023-12-14T07:30:54;100142.63;;;4.96
72278;BMP280;61204;49.980;8.358;2023-12-14T07:33:20;100138.66;;;4.90
72278;BMP280;61204;49.980;8.358;2023-12-14T07:35:46;100150.03;;;4.88
72278;BMP280;61204;49.980;8.358;2023-12-14T07:38:13;100164.91;;;4.87
72278;BMP280;61204;49.980;8.358;2023-12-14T07:40:40;100173.25;;;4.82
72278;BMP280;61204;49.980;8.358;2023-12-14T07:43:08;100170.31;;;4.80
72278;BMP280;61204;49.980;8.358;2023-12-14T07:45:34;100171.25;;;4.82
72278;BMP280;61204;49.980;8.358;2023-12-14T07:47:59;100174.50;;;4.88
72278;BMP280;61204;49.980;8.358;2023-12-14T07:50:26;100175.94;;;4.97
72278;BMP280;61204;49.980;8.358;2023-12-14T07:52:51;100187.91;;;5.09
72278;BMP280;61204;49.980;8.358;2023-12-14T07:55:18;100181.34;;;5.20
72278;BMP280;61204;49.980;8.358;2023-12-14T07:57:44;100190.41;;;5.30
72278;BMP280;61204;49.980;8.358;2023-12-14T08:00:10;100186.19;;;5.37
72278;BMP280;61204;49.980;8.358;2023-12-14T08:02:36;100196.69;;;5.48
72278;BMP280;61204;49.980;8.358;2023-12-14T08:05:02;100200.19;;;5.81
72278;BMP280;61204;49.980;8.358;2023-12-14T08:07:31;100199.19;;;6.01
72278;BMP280;61204;49.980;8.358;2023-12-14T08:09:57;100203.16;;;6.08
72278;BMP280;61204;49.980;8.358;2023-12-14T08:12:24;100216.38;;;6.12
72278;BMP280;61204;49.980;8.358;2023-12-14T08:14:51;100211.19;;;6.06
72278;BMP280;61204;49.980;8.358;2023-12-14T08:17:17;100218.03;;;6.07
72278;BMP280;61204;49.980;8.358;2023-12-14T08:19:43;100227.41;;;6.21
72278;BMP280;61204;49.980;8.358;2023-12-14T08:22:10;100229.53;;;6.30
72278;BMP280;61204;49.980;8.358;2023-12-14T08:24:41;100233.75;;;6.56
72278;BMP280;61204;49.980;8.358;2023-12-14T08:27:07;100238.19;;;6.44
72278;BMP280;61204;49.980;8.358;2023-12-14T08:29:33;100239.84;;;6.65
72278;BMP280;61204;49.980;8.358;2023-12-14T08:31:58;100230.84;;;6.79
72278;BMP280;61204;49.980;8.358;2023-12-14T08:34:27;100245.81;;;6.88
72278;BMP280;61204;49.980;8.358;2023-12-14T08:36:53;100252.69;;;6.97
72278;BMP280;61204;49.980;8.358;2023-12-14T08:39:19;100267.69;;;7.05
72278;BMP280;61204;49.980;8.358;2023-12-14T08:41:46;100274.13;;;7.18
72278;BMP280;61204;49.980;8.358;2023-12-14T08:44:13;100277.38;;;7.24
72278;BMP280;61204;49.980;8.358;2023-12-14T08:46:45;100285.63;;;7.33
72278;BMP280;61204;49.980;8.358;2023-12-14T08:49:12;100300.25;;;7.46
72278;BMP280;61204;49.980;8.358;2023-12-14T08:51:41;100301.44;;;7.52
72278;BMP280;61204;49.980;8.358;2023-12-14T08:54:07;100315.31;;;7.64
72278;BMP280;61204;49.980;8.358;2023-12-14T08:56:33;100321.44;;;7.72
72278;BMP280;61204;49.980;8.358;2023-12-14T08:58:59;100330.00;;;7.86
72278;BMP280;61204;49.980;8.358;2023-12-14T09:01:28;100339.41;;;7.93
72278;BMP280;61204;49.980;8.358;2023-12-14T09:03:54;100343.66;;;8.03
72278;BMP280;61204;49.980;8.358;2023-12-14T09:06:20;100360.50;;;8.09
72278;BMP280;61204;49.980;8.358;2023-12-14T09:08:45;100369.00;;;8.31
72278;BMP280;61204;49.980;8.358;2023-12-14T09:11:13;100371.16;;;8.32
72278;BMP280;61204;49.980;8.358;2023-12-14T09:13:40;100388.63;;;8.47
72278;BMP280;61204;49.980;8.358;2023-12-14T09:16:06;100384.59;;;8.65
72278;BMP280;61204;49.980;8.358;2023-12-14T09:18:32;100396.59;;;8.79
72278;BMP280;61204;49.980;8.358;2023-12-14T09:20:57;100405.22;;;8.76
72278;BMP280;61204;49.980;8.358;2023-12-14T09:23:23;100410.97;;;8.80
72278;BMP280;61204;49.980;8.358;2023-12-14T09:25:48;100415.84;;;8.71
72278;BMP280;61204;49.980;8.358;2023-12-14T09:28:15;100419.00;;;8.78
72278;BMP280;61204;49.980;8.358;2023-12-14T09:30:40;100428.22;;;8.73
72278;BMP280;61204;49.980;8.358;2023-12-14T09:33:06;100432.69;;;8.78
72278;BMP280;61204;49.980;8.358;2023-12-14T09:35:33;100446.53;;;8.80
72278;BMP280;61204;49.980;8.358;2023-12-14T09:38:06;100444.56;;;8.63
72278;BMP280;61204;49.980;8.358;2023-12-14T09:40:32;100448.97;;;8.58
72278;BMP280;61204;49.980;8.358;2023-12-14T09:43:00;100456.22;;;8.63
72278;BMP280;61204;49.980;8.358;2023-12-14T09:45:29;100457.25;;;8.68
72278;BMP280;61204;49.980;8.358;2023-12-14T09:48:00;100459.72;;;8.74
72278;BMP280;61204;49.980;8.358;2023-12-14T09:50:26;100470.03;;;8.92
72278;BMP280;61204;49.980;8.358;2023-12-14T09:52:55;100482.56;;;9.13
72278;BMP280;61204;49.980;8.358;2023-12-14T09:55:20;100485.06;;;9.28
72278;BMP280;61204;49.980;8.358;2023-12-14T09:57:46;100490.91;;;9.15
72278;BMP280;61204;49.980;8.358;2023-12-14T10:00:12;100500.97;;;9.12
72278;BMP280;61204;49.980;8.358;2023-12-14T10:02:57;100503.63;;;8.76
72278;BMP280;61204;49.980;8.358;2023-12-14T10:05:23;100498.72;;;8.57
72278;BMP280;61204;49.980;8.358;2023-12-14T10:07:51;100504.69;;;8.63
72278;BMP280;61204;49.980;8.358;2023-12-14T10:10:18;100508.47;;;8.50
72278;BMP280;61204;49.980;8.358;2023-12-14T10:12:51;100506.00;;;8.44
72278;BMP280;61204;49.980;8.358;2023-12-14T10:15:19;100514.59;;;8.41
72278;BMP280;61204;49.980;8.358;2023-12-14T10:17:47;100522.88;;;8.33
72278;BMP280;61204;49.980;8.358;2023-12-14T10:20:22;100520.34;;;8.28
72278;BMP280;61204;49.980;8.358;2023-12-14T10:22:52;100522.94;;;8.43
72278;BMP280;61204;49.980;8.358;2023-12-14T10:25:19;100527.81;;;8.27
72278;BMP280;61204;49.980;8.358;2023-12-14T10:27:50;100520.44;;;8.37
72278;BMP280;61204;49.980;8.358;2023-12-14T10:30:22;100524.47;;;8.36
72278;BMP280;61204;49.980;8.358;2023-12-14T10:32:48;100521.00;;;8.36
72278;BMP280;61204;49.980;8.358;2023-12-14T10:35:15;100529.22;;;8.36
72278;BMP280;61204;49.980;8.358;2023-12-14T10:37:42;100524.69;;;8.31
72278;BMP280;61204;49.980;8.358;2023-12-14T10:40:11;100532.25;;;8.40
72278;BMP280;61204;49.980;8.358;2023-12-14T10:42:42;100541.91;;;8.41
72278;BMP280;61204;49.980;8.358;2023-12-14T10:45:15;100544.25;;;8.44
72278;BMP280;61204;49.980;8.358;2023-12-14T10:47:48;100541.56;;;8.37
72278;BMP280;61204;49.980;8.358;2023-12-14T10:50:16;100547.03;;;8.37
72278;BMP280;61204;49.980;8.358;2023-12-14T10:52:44;100542.78;;;8.43
72278;BMP280;61204;49.980;8.358;2023-12-14T10:55:36;100548.81;;;8.59
72278;BMP280;61204;49.980;8.358;2023-12-14T10:58:08;100552.75;;;8.66
72278;BMP280;61204;49.980;8.358;2023-12-14T11:00:38;100554.53;;;8.71
72278;BMP280;61204;49.980;8.358;2023-12-14T11:03:06;100564.00;;;8.70
72278;BMP280;61204;49.980;8.358;2023-12-14T11:05:33;100570.28;;;8.63
72278;BMP280;61204;49.980;8.358;2023-12-14T11:08:01;100577.84;;;8.72
72278;BMP280;61204;49.980;8.358;2023-12-14T11:10:38;100582.25;;;8.67
72278;BMP280;61204;49.980;8.358;2023-12-14T11:13:17;100586.69;;;8.63
72278;BMP280;61204;49.980;8.358;2023-12-14T11:15:51;100589.25;;;8.61
72278;BMP280;61204;49.980;8.358;2023-12-14T11:25:43;100601.88;;;8.56
72278;BMP280;61204;49.980;8.358;2023-12-14T11:28:09;100608.84;;;8.50
72278;BMP280;61204;49.980;8.358;2023-12-14T11:30:36;100608.16;;;8.66
72278;BMP280;61204;49.980;8.358;2023-12-14T11:33:03;100613.59;;;8.66
72278;BMP280;61204;49.980;8.358;2023-12-14T11:35:29;100630.41;;;8.80
72278;BMP280;61204;49.980;8.358;2023-12-14T11:37:55;100633.81;;;8.71
72278;BMP280;61204;49.980;8.358;2023-12-14T11:40:24;100640.25;;;8.83
72278;BMP280;61204;49.980;8.358;2023-12-14T11:43:00;100633.47;;;8.84
72278;BMP280;61204;49.980;8.358;2023-12-14T11:45:32;100643.53;;;8.64
72278;BMP280;61204;49.980;8.358;2023-12-14T11:47:57;100649.47;;;8.70
72278;BMP280;61204;49.980;8.358;2023-12-14T11:50:23;100652.94;;;8.71
72278;BMP280;61204;49.980;8.358;2023-12-14T11:52:49;100651.00;;;8.81
72278;BMP280;61204;49.980;8.358;2023-12-14T11:55:15;100654.31;;;8.80
72278;BMP280;61204;49.980;8.358;2023-12-14T11:57:49;100655.66;;;8.88
72278;BMP280;61204;49.980;8.358;2023-12-14T12:00:15;100652.38;;;8.90
72278;BMP280;61204;49.980;8.358;2023-12-14T12:02:42;100650.06;;;8.86
72278;BMP280;61204;49.980;8.358;2023-12-14T12:05:08;100649.78;;;8.92
72278;BMP280;61204;49.980;8.358;2023-12-14T12:07:39;100652.00;;;8.93
72278;BMP280;61204;49.980;8.358;2023-12-14T12:10:09;100652.00;;;8.93
72278;BMP280;61204;49.980;8.358;2023-12-14T12:12:36;100645.63;;;8.91
72278;BMP280;61204;49.980;8.358;2023-12-14T12:15:04;100654.97;;;9.05
72278;BMP280;61204;49.980;8.358;2023-12-14T12:17:30;100658.41;;;9.06
72278;BMP280;61204;49.980;8.358;2023-12-14T12:20:06;100667.50;;;8.91
72278;BMP280;61204;49.980;8.358;2023-12-14T12:22:32;100665.31;;;8.89
72278;BMP280;61204;49.980;8.358;2023-12-14T12:24:59;100660.81;;;8.84
72278;BMP280;61204;49.980;8.358;2023-12-14T12:27:26;100676.81;;;8.88
72278;BMP280;61204;49.980;8.358;2023-12-14T12:29:51;100663.47;;;8.92
72278;BMP280;61204;49.980;8.358;2023-12-14T12:32:19;100669.91;;;9.04
72278;BMP280;61204;49.980;8.358;2023-12-14T12:34:45;100668.69;;;8.97
72278;BMP280;61204;49.980;8.358;2023-12-14T12:37:10;100654.88;;;8.95
72278;BMP280;61204;49.980;8.358;2023-12-14T12:39:36;100659.72;;;9.05
72278;BMP280;61204;49.980;8.358;2023-12-14T12:42:01;100666.44;;;9.21
72278;BMP280;61204;49.980;8.358;2023-12-14T12:44:27;100674.31;;;9.17
72278;BMP280;61204;49.980;8.358;2023-12-14T12:46:53;100671.59;;;8.99
72278;BMP280;61204;49.980;8.358;2023-12-14T12:49:22;100678.69;;;9.03
72278;BMP280;61204;49.980;8.358;2023-12-14T12:51:48;100686.97;;;8.95
72278;BMP280;61204;49.980;8.358;2023-12-14T12:54:16;100683.97;;;9.01
72278;BMP280;61204;49.980;8.358;2023-12-14T12:56:41;100694.50;;;8.87
72278;BMP280;61204;49.980;8.358;2023-12-14T12:59:08;100698.88;;;8.90
72278;BMP280;61204;49.980;8.358;2023-12-14T13:01:34;100703.38;;;8.95
72278;BMP280;61204;49.980;8.358;2023-12-14T13:04:00;100702.97;;;8.98
72278;BMP280;61204;49.980;8.358;2023-12-14T13:06:26;100711.47;;;8.85
72278;BMP280;61204;49.980;8.358;2023-12-14T13:08:54;100707.59;;;8.88
72278;BMP280;61204;49.980;8.358;2023-12-14T13:11:19;100717.75;;;8.78
72278;BMP280;61204;49.980;8.358;2023-12-14T13:13:45;100712.44;;;8.80
72278;BMP280;61204;49.980;8.358;2023-12-14T13:16:10;100715.47;;;8.67
72278;BMP280;61204;49.980;8.358;2023-12-14T13:18:39;100714.75;;;8.66
72278;BMP280;61204;49.980;8.358;2023-12-14T13:21:05;100719.50;;;8.66
72278;BMP280;61204;49.980;8.358;2023-12-14T13:23:31;100724.88;;;8.56
72278;BMP280;61204;49.980;8.358;2023-12-14T13:25:56;100731.31;;;8.43
72278;BMP280;61204;49.980;8.358;2023-12-14T13:28:22;100730.06;;;8.44
72278;BMP280;61204;49.980;8.358;2023-12-14T13:30:48;100739.09;;;8.47
72278;BMP280;61204;49.980;8.358;2023-12-14T13:33:14;100743.72;;;8.44
72278;BMP280;61204;49.980;8.358;2023-12-14T13:35:39;100748.63;;;8.46
72278;BMP280;61204;49.980;8.358;2023-12-14T13:38:07;100756.09;;;8.46
72278;BMP280;61204;49.980;8.358;2023-12-14T13:40:33;100756.66;;;8.44
72278;BMP280;61204;49.980;8.358;2023-12-14T13:42:58;100760.53;;;8.33
72278;BMP280;61204;49.980;8.358;2023-12-14T13:45:26;100770.38;;;8.29
72278;BMP280;61204;49.980;8.358;2023-12-14T13:47:54;100771.84;;;8.30
72278;BMP280;61204;49.980;8.358;2023-12-14T13:50:20;100776.97;;;8.26
72278;BMP280;61204;49.980;8.358;2023-12-14T13:52:46;100787.56;;;8.22
72278;BMP280;61204;49.980;8.358;2023-12-14T13:55:12;100783.72;;;8.17
72278;BMP280;61204;49.980;8.358;2023-12-14T13:57:37;100788.88;;;8.13
72278;BMP280;61204;49.980;8.358;2023-12-14T14:00:03;100791.59;;;8.13
72278;BMP280;61204;49.980;8.358;2023-12-14T14:02:30;100793.22;;;8.16
72278;BMP280;61204;49.980;8.358;2023-12-14T14:04:55;100803.41;;;8.15
72278;BMP280;61204;49.980;8.358;2023-12-14T14:07:21;100812.88;;;8.22
72278;BMP280;61204;49.980;8.358;2023-12-14T14:09:47;100816.91;;;8.13
72278;BMP280;61204;49.980;8.358;2023-12-14T14:12:13;100832.94;;;8.09
72278;BMP280;61204;49.980;8.358;2023-12-14T14:14:41;100835.63;;;8.17
72278;BMP280;61204;49.980;8.358;2023-12-14T14:17:07;100846.53;;;8.25
72278;BMP280;61204;49.980;8.358;2023-12-14T14:19:33;100852.03;;;8.17